sensor_id;sensor_type;location;lat;lon;timestamp;P1;durP1;ratioP1;P2;durP2;ratioP2
5696;SDS011;2873;50.966;7.210;2023-06-10T00:01:28;14.47;;;10.20;;
5696;SDS011;2873;50.966;7.210;2023-06-10T00:03:55;9.95;;;9.02;;
5696;SDS011;2873;50.966;7.210;2023-06-10T00:06:20;12.87;;;9.20;;
5696;SDS011;2873;50.966;7.210;2023-06-10T00:08:49;15.05;;;9.98;;
5696;SDS011;2873;50.966;7.210;2023-06-10T00:11:15;11.95;;;9.25;;
5696;SDS011;2873;50.966;7.210;2023-06-10T00:13:40;10.80;;;9.70;;
5696;SDS011;2873;50.966;7.210;2023-06-10T00:16:06;10.33;;;9.23;;
5696;SDS011;2873;50.966;7.210;2023-06-10T00:18:31;10.55;;;9.52;;
5696;SDS011;2873;50.966;7.210;2023-06-10T00:20:57;10.40;;;9.10;;
5696;SDS011;2873;50.966;7.210;2023-06-10T00:23:29;10.20;;;9.20;;
5696;SDS011;2873;50.966;7.210;2023-06-10T00:25:56;9.70;;;8.70;;
5696;SDS011;2873;50.966;7.210;2023-06-10T00:28:24;10.15;;;9.25;;
5696;SDS011;2873;50.966;7.210;2023-06-10T00:30:50;11.35;;;9.57;;
5696;SDS011;2873;50.966;7.210;2023-06-10T00:33:16;10.48;;;9.20;;
5696;SDS011;2873;50.966;7.210;2023-06-10T00:35:42;10.70;;;9.60;;
5696;SDS011;2873;50.966;7.210;2023-06-10T00:38:07;11.37;;;9.00;;
5696;SDS011;2873;50.966;7.210;2023-06-10T00:40:33;10.43;;;9.13;;
5696;SDS011;2873;50.966;7.210;2023-06-10T00:43:04;13.25;;;10.40;;
5696;SDS011;2873;50.966;7.210;2023-06-10T00:45:30;11.00;;;9.80;;
5696;SDS011;2873;50.966;7.210;2023-06-10T00:47:56;12.18;;;9.75;;
5696;SDS011;2873;50.966;7.210;2023-06-10T00:50:21;10.02;;;9.07;;
5696;SDS011;2873;50.966;7.210;2023-06-10T00:52:47;12.03;;;10.47;;
5696;SDS011;2873;50.966;7.210;2023-06-10T00:55:13;10.10;;;9.07;;
5696;SDS011;2873;50.966;7.210;2023-06-10T00:57:41;10.73;;;9.63;;
5696;SDS011;2873;50.966;7.210;2023-06-10T01:00:10;11.50;;;9.63;;
5696;SDS011;2873;50.966;7.210;2023-06-10T01:02:37;12.67;;;9.70;;
5696;SDS011;2873;50.966;7.210;2023-06-10T01:05:02;10.82;;;9.73;;
5696;SDS011;2873;50.966;7.210;2023-06-10T01:07:31;11.90;;;9.80;;
5696;SDS011;2873;50.966;7.210;2023-06-10T01:10:11;10.23;;;9.23;;
5696;SDS011;2873;50.966;7.210;2023-06-10T01:12:55;11.43;;;9.40;;
5696;SDS011;2873;50.966;7.210;2023-06-10T01:15:27;10.70;;;9.68;;
5696;SDS011;2873;50.966;7.210;2023-06-10T01:18:00;10.52;;;9.52;;
5696;SDS011;2873;50.966;7.210;2023-06-10T01:20:31;11.40;;;9.53;;
5696;SDS011;2873;50.966;7.210;2023-06-10T01:22:57;11.05;;;9.85;;
5696;SDS011;2873;50.966;7.210;2023-06-10T01:25:24;11.57;;;10.38;;
5696;SDS011;2873;50.966;7.210;2023-06-10T01:27:54;9.80;;;8.80;;
5696;SDS011;2873;50.966;7.210;2023-06-10T01:30:29;11.17;;;9.20;;
5696;SDS011;2873;50.966;7.210;2023-06-10T01:33:02;12.60;;;9.60;;
5696;SDS011;2873;50.966;7.210;2023-06-10T01:35:31;10.93;;;9.80;;
5696;SDS011;2873;50.966;7.210;2023-06-10T01:37:58;13.27;;;10.52;;
5696;SDS011;2873;50.966;7.210;2023-06-10T01:40:26;11.27;;;9.70;;
5696;SDS011;2873;50.966;7.210;2023-06-10T01:42:53;12.73;;;9.53;;
5696;SDS011;2873;50.966;7.210;2023-06-10T01:45:18;12.38;;;9.30;;
5696;SDS011;2873;50.966;7.210;2023-06-10T01:47:44;10.33;;;9.00;;
5696;SDS011;2873;50.966;7.210;2023-06-10T01:50:10;13.20;;;9.60;;
5696;SDS011;2873;50.966;7.210;2023-06-10T01:52:35;14.45;;;10.30;;
5696;SDS011;2873;50.966;7.210;2023-06-10T01:55:02;10.32;;;9.32;;
5696;SDS011;2873;50.966;7.210;2023-06-10T01:57:28;11.30;;;10.20;;
5696;SDS011;2873;50.966;7.210;2023-06-10T01:59:53;11.60;;;9.60;;
5696;SDS011;2873;50.966;7.210;2023-06-10T02:02:19;11.73;;;9.80;;
5696;SDS011;2873;50.966;7.210;2023-06-10T02:04:46;17.30;;;9.63;;
5696;SDS011;2873;50.966;7.210;2023-06-10T02:07:14;10.40;;;9.40;;
5696;SDS011;2873;50.966;7.210;2023-06-10T02:09:39;13.77;;;10.00;;
5696;SDS011;2873;50.966;7.210;2023-06-10T02:12:05;11.33;;;9.77;;
5696;SDS011;2873;50.966;7.210;2023-06-10T02:14:31;11.45;;;10.27;;
5696;SDS011;2873;50.966;7.210;2023-06-10T02:16:58;11.15;;;9.95;;
5696;SDS011;2873;50.966;7.210;2023-06-10T02:19:23;11.18;;;8.95;;
5696;SDS011;2873;50.966;7.210;2023-06-10T02:21:51;12.20;;;9.13;;
5696;SDS011;2873;50.966;7.210;2023-06-10T02:24:17;11.07;;;9.90;;
5696;SDS011;2873;50.966;7.210;2023-06-10T02:26:42;17.98;;;9.48;;
5696;SDS011;2873;50.966;7.210;2023-06-10T02:29:08;11.07;;;9.60;;
5696;SDS011;2873;50.966;7.210;2023-06-10T02:31:33;11.00;;;9.23;;
5696;SDS011;2873;50.966;7.210;2023-06-10T02:34:00;10.68;;;9.57;;
5696;SDS011;2873;50.966;7.210;2023-06-10T02:36:26;11.18;;;9.70;;
5696;SDS011;2873;50.966;7.210;2023-06-10T02:38:52;11.00;;;8.95;;
5696;SDS011;2873;50.966;7.210;2023-06-10T02:41:18;10.90;;;8.98;;
5696;SDS011;2873;50.966;7.210;2023-06-10T02:43:44;10.00;;;9.00;;
5696;SDS011;2873;50.966;7.210;2023-06-10T02:46:09;10.80;;;8.93;;
5696;SDS011;2873;50.966;7.210;2023-06-10T02:48:41;14.37;;;9.57;;
5696;SDS011;2873;50.966;7.210;2023-06-10T02:51:11;12.85;;;9.57;;
5696;SDS011;2873;50.966;7.210;2023-06-10T02:53:37;10.80;;;9.70;;
5696;SDS011;2873;50.966;7.210;2023-06-10T02:56:02;13.65;;;8.98;;
5696;SDS011;2873;50.966;7.210;2023-06-10T02:58:28;9.80;;;8.80;;
5696;SDS011;2873;50.966;7.210;2023-06-10T03:00:54;12.98;;;9.30;;
5696;SDS011;2873;50.966;7.210;2023-06-10T03:03:19;10.80;;;9.10;;
5696;SDS011;2873;50.966;7.210;2023-06-10T03:05:47;10.25;;;9.20;;
5696;SDS011;2873;50.966;7.210;2023-06-10T03:08:13;13.43;;;9.03;;
5696;SDS011;2873;50.966;7.210;2023-06-10T03:10:38;10.15;;;9.05;;
5696;SDS011;2873;50.966;7.210;2023-06-10T03:13:04;9.63;;;8.63;;
5696;SDS011;2873;50.966;7.210;2023-06-10T03:15:30;11.47;;;9.20;;
5696;SDS011;2873;50.966;7.210;2023-06-10T03:17:57;15.00;;;9.25;;
5696;SDS011;2873;50.966;7.210;2023-06-10T03:20:27;10.43;;;8.65;;
5696;SDS011;2873;50.966;7.210;2023-06-10T03:22:53;12.10;;;8.38;;
5696;SDS011;2873;50.966;7.210;2023-06-10T03:25:19;11.13;;;8.27;;
5696;SDS011;2873;50.966;7.210;2023-06-10T03:27:46;9.60;;;8.30;;
5696;SDS011;2873;50.966;7.210;2023-06-10T03:30:12;9.60;;;8.15;;
5696;SDS011;2873;50.966;7.210;2023-06-10T03:32:39;11.43;;;8.63;;
5696;SDS011;2873;50.966;7.210;2023-06-10T03:35:06;9.00;;;8.10;;
5696;SDS011;2873;50.966;7.210;2023-06-10T03:37:32;10.52;;;8.77;;
5696;SDS011;2873;50.966;7.210;2023-06-10T03:39:57;10.70;;;7.85;;
5696;SDS011;2873;50.966;7.210;2023-06-10T03:42:23;8.70;;;7.80;;
5696;SDS011;2873;50.966;7.210;2023-06-10T03:44:48;8.50;;;7.60;;
5696;SDS011;2873;50.966;7.210;2023-06-10T03:47:14;9.60;;;7.93;;
5696;SDS011;2873;50.966;7.210;2023-06-10T03:49:39;9.00;;;8.10;;
5696;SDS011;2873;50.966;7.210;2023-06-10T03:52:05;8.10;;;7.40;;
5696;SDS011;2873;50.966;7.210;2023-06-10T03:54:31;10.00;;;7.78;;
5696;SDS011;2873;50.966;7.210;2023-06-10T03:56:59;11.00;;;7.60;;
5696;SDS011;2873;50.966;7.210;2023-06-10T03:59:25;8.30;;;7.50;;
5696;SDS011;2873;50.966;7.210;2023-06-10T04:01:50;10.25;;;7.10;;
5696;SDS011;2873;50.966;7.210;2023-06-10T04:04:16;8.60;;;7.70;;
5696;SDS011;2873;50.966;7.210;2023-06-10T04:06:42;11.00;;;7.90;;
5696;SDS011;2873;50.966;7.210;2023-06-10T04:09:08;8.67;;;7.60;;
5696;SDS011;2873;50.966;7.210;2023-06-10T04:11:35;11.13;;;8.18;;
5696;SDS011;2873;50.966;7.210;2023-06-10T04:14:00;8.00;;;7.30;;
5696;SDS011;2873;50.966;7.210;2023-06-10T04:16:26;9.13;;;7.60;;
5696;SDS011;2873;50.966;7.210;2023-06-10T04:18:52;10.55;;;7.28;;
5696;SDS011;2873;50.966;7.210;2023-06-10T04:21:18;10.37;;;7.10;;
5696;SDS011;2873;50.966;7.210;2023-06-10T04:23:43;9.20;;;7.37;;
5696;SDS011;2873;50.966;7.210;2023-06-10T04:26:09;13.80;;;7.80;;
5696;SDS011;2873;50.966;7.210;2023-06-10T04:28:37;7.70;;;6.90;;
5696;SDS011;2873;50.966;7.210;2023-06-10T04:31:02;8.40;;;7.03;;
5696;SDS011;2873;50.966;7.210;2023-06-10T04:33:29;8.77;;;7.33;;
5696;SDS011;2873;50.966;7.210;2023-06-10T04:35:55;7.63;;;6.80;;
5696;SDS011;2873;50.966;7.210;2023-06-10T04:38:21;8.40;;;6.85;;
5696;SDS011;2873;50.966;7.210;2023-06-10T04:40:47;9.20;;;7.30;;
5696;SDS011;2873;50.966;7.210;2023-06-10T04:43:13;8.70;;;7.10;;
5696;SDS011;2873;50.966;7.210;2023-06-10T04:45:38;7.70;;;7.00;;
5696;SDS011;2873;50.966;7.210;2023-06-10T04:48:04;10.57;;;7.47;;
5696;SDS011;2873;50.966;7.210;2023-06-10T04:50:30;9.50;;;6.93;;
5696;SDS011;2873;50.966;7.210;2023-06-10T04:52:58;9.93;;;7.53;;
5696;SDS011;2873;50.966;7.210;2023-06-10T04:55:23;9.63;;;7.30;;
5696;SDS011;2873;50.966;7.210;2023-06-10T04:57:50;8.93;;;6.70;;
5696;SDS011;2873;50.966;7.210;2023-06-10T05:00:16;7.55;;;6.50;;
5696;SDS011;2873;50.966;7.210;2023-06-10T05:02:42;8.43;;;6.70;;
5696;SDS011;2873;50.966;7.210;2023-06-10T05:05:07;13.13;;;8.00;;
5696;SDS011;2873;50.966;7.210;2023-06-10T05:07:33;11.45;;;6.60;;
5696;SDS011;2873;50.966;7.210;2023-06-10T05:09:59;9.50;;;6.93;;
5696;SDS011;2873;50.966;7.210;2023-06-10T05:12:25;7.47;;;6.78;;
5696;SDS011;2873;50.966;7.210;2023-06-10T05:14:51;7.90;;;7.10;;
5696;SDS011;2873;50.966;7.210;2023-06-10T05:17:17;9.07;;;7.07;;
5696;SDS011;2873;50.966;7.210;2023-06-10T05:19:42;9.27;;;7.20;;
5696;SDS011;2873;50.966;7.210;2023-06-10T05:22:08;9.00;;;7.57;;
5696;SDS011;2873;50.966;7.210;2023-06-10T05:24:34;9.02;;;7.13;;
5696;SDS011;2873;50.966;7.210;2023-06-10T05:26:59;7.40;;;6.70;;
5696;SDS011;2873;50.966;7.210;2023-06-10T05:29:25;9.68;;;6.88;;
5696;SDS011;2873;50.966;7.210;2023-06-10T05:31:51;8.93;;;6.90;;
5696;SDS011;2873;50.966;7.210;2023-06-10T05:34:16;9.87;;;7.80;;
5696;SDS011;2873;50.966;7.210;2023-06-10T05:36:43;9.15;;;7.40;;
5696;SDS011;2873;50.966;7.210;2023-06-10T05:39:09;9.57;;;7.40;;
5696;SDS011;2873;50.966;7.210;2023-06-10T05:41:35;7.28;;;6.57;;
5696;SDS011;2873;50.966;7.210;2023-06-10T05:44:00;8.27;;;6.97;;
5696;SDS011;2873;50.966;7.210;2023-06-10T05:46:26;8.63;;;7.13;;
5696;SDS011;2873;50.966;7.210;2023-06-10T05:48:52;7.50;;;6.80;;
5696;SDS011;2873;50.966;7.210;2023-06-10T05:51:17;8.40;;;6.90;;
5696;SDS011;2873;50.966;7.210;2023-06-10T05:53:43;8.02;;;6.90;;
5696;SDS011;2873;50.966;7.210;2023-06-10T05:56:08;11.55;;;7.72;;
5696;SDS011;2873;50.966;7.210;2023-06-10T05:58:34;8.00;;;7.00;;
5696;SDS011;2873;50.966;7.210;2023-06-10T06:00:59;7.93;;;6.80;;
5696;SDS011;2873;50.966;7.210;2023-06-10T06:03:25;7.60;;;6.27;;
5696;SDS011;2873;50.966;7.210;2023-06-10T06:05:53;8.50;;;7.10;;
5696;SDS011;2873;50.966;7.210;2023-06-10T06:08:19;7.95;;;7.15;;
5696;SDS011;2873;50.966;7.210;2023-06-10T06:10:45;13.70;;;7.20;;
5696;SDS011;2873;50.966;7.210;2023-06-10T06:13:11;8.75;;;6.97;;
5696;SDS011;2873;50.966;7.210;2023-06-10T06:15:36;10.00;;;6.88;;
5696;SDS011;2873;50.966;7.210;2023-06-10T06:18:02;8.50;;;7.07;;
5696;SDS011;2873;50.966;7.210;2023-06-10T06:20:27;8.53;;;6.83;;
5696;SDS011;2873;50.966;7.210;2023-06-10T06:22:54;10.87;;;7.20;;
5696;SDS011;2873;50.966;7.210;2023-06-10T06:25:19;9.30;;;7.20;;
5696;SDS011;2873;50.966;7.210;2023-06-10T06:27:45;8.77;;;6.70;;
5696;SDS011;2873;50.966;7.210;2023-06-10T06:30:10;7.47;;;6.40;;
5696;SDS011;2873;50.966;7.210;2023-06-10T06:32:36;10.70;;;7.00;;
5696;SDS011;2873;50.966;7.210;2023-06-10T06:35:02;8.40;;;7.55;;
5696;SDS011;2873;50.966;7.210;2023-06-10T06:37:29;8.18;;;6.97;;
5696;SDS011;2873;50.966;7.210;2023-06-10T06:39:55;11.02;;;7.10;;
5696;SDS011;2873;50.966;7.210;2023-06-10T06:42:20;8.05;;;7.25;;
5696;SDS011;2873;50.966;7.210;2023-06-10T06:44:46;8.30;;;7.20;;
5696;SDS011;2873;50.966;7.210;2023-06-10T06:47:12;10.87;;;7.57;;
5696;SDS011;2873;50.966;7.210;2023-06-10T06:49:38;10.77;;;7.82;;
5696;SDS011;2873;50.966;7.210;2023-06-10T06:52:04;12.47;;;7.20;;
5696;SDS011;2873;50.966;7.210;2023-06-10T06:54:30;7.45;;;6.75;;
5696;SDS011;2873;50.966;7.210;2023-06-10T06:56:56;8.85;;;6.82;;
5696;SDS011;2873;50.966;7.210;2023-06-10T06:59:22;8.40;;;7.10;;
5696;SDS011;2873;50.966;7.210;2023-06-10T07:01:48;7.90;;;6.90;;
5696;SDS011;2873;50.966;7.210;2023-06-10T07:04:14;9.90;;;7.30;;
5696;SDS011;2873;50.966;7.210;2023-06-10T07:06:40;8.75;;;7.35;;
5696;SDS011;2873;50.966;7.210;2023-06-10T07:09:07;8.07;;;7.27;;
5696;SDS011;2873;50.966;7.210;2023-06-10T07:11:34;9.77;;;7.45;;
5696;SDS011;2873;50.966;7.210;2023-06-10T07:13:59;9.25;;;7.07;;
5696;SDS011;2873;50.966;7.210;2023-06-10T07:16:25;7.72;;;7.00;;
5696;SDS011;2873;50.966;7.210;2023-06-10T07:18:50;9.43;;;6.80;;
5696;SDS011;2873;50.966;7.210;2023-06-10T07:21:17;8.25;;;7.00;;
5696;SDS011;2873;50.966;7.210;2023-06-10T07:23:43;11.60;;;7.43;;
5696;SDS011;2873;50.966;7.210;2023-06-10T07:26:09;8.33;;;7.03;;
5696;SDS011;2873;50.966;7.210;2023-06-10T07:28:36;7.87;;;7.07;;
5696;SDS011;2873;50.966;7.210;2023-06-10T07:31:02;7.93;;;7.13;;
5696;SDS011;2873;50.966;7.210;2023-06-10T07:33:28;9.38;;;7.10;;
5696;SDS011;2873;50.966;7.210;2023-06-10T07:35:54;7.60;;;6.80;;
5696;SDS011;2873;50.966;7.210;2023-06-10T07:38:19;9.60;;;7.47;;
5696;SDS011;2873;50.966;7.210;2023-06-10T07:40:45;9.30;;;7.25;;
5696;SDS011;2873;50.966;7.210;2023-06-10T07:43:11;9.00;;;7.63;;
5696;SDS011;2873;50.966;7.210;2023-06-10T07:45:39;9.13;;;7.50;;
5696;SDS011;2873;50.966;7.210;2023-06-10T07:48:05;10.00;;;7.60;;
5696;SDS011;2873;50.966;7.210;2023-06-10T07:50:30;8.33;;;7.17;;
5696;SDS011;2873;50.966;7.210;2023-06-10T07:52:56;8.17;;;7.37;;
5696;SDS011;2873;50.966;7.210;2023-06-10T07:55:21;7.87;;;7.07;;
5696;SDS011;2873;50.966;7.210;2023-06-10T07:57:47;10.33;;;7.73;;
5696;SDS011;2873;50.966;7.210;2023-06-10T08:00:12;8.83;;;7.13;;
5696;SDS011;2873;50.966;7.210;2023-06-10T08:02:38;9.13;;;8.20;;
5696;SDS011;2873;50.966;7.210;2023-06-10T08:05:04;11.97;;;7.90;;
5696;SDS011;2873;50.966;7.210;2023-06-10T08:07:30;9.00;;;7.57;;
5696;SDS011;2873;50.966;7.210;2023-06-10T08:09:56;8.15;;;7.45;;
5696;SDS011;2873;50.966;7.210;2023-06-10T08:12:22;8.20;;;7.40;;
5696;SDS011;2873;50.966;7.210;2023-06-10T08:14:48;8.30;;;7.13;;
5696;SDS011;2873;50.966;7.210;2023-06-10T08:17:13;9.53;;;7.37;;
5696;SDS011;2873;50.966;7.210;2023-06-10T08:19:39;11.85;;;8.38;;
5696;SDS011;2873;50.966;7.210;2023-06-10T08:22:05;9.70;;;7.70;;
5696;SDS011;2873;50.966;7.210;2023-06-10T08:24:30;10.20;;;8.40;;
5696;SDS011;2873;50.966;7.210;2023-06-10T08:26:56;12.67;;;7.97;;
5696;SDS011;2873;50.966;7.210;2023-06-10T08:29:22;11.50;;;8.25;;
5696;SDS011;2873;50.966;7.210;2023-06-10T08:31:48;8.87;;;8.00;;
5696;SDS011;2873;50.966;7.210;2023-06-10T08:34:14;8.80;;;7.88;;
5696;SDS011;2873;50.966;7.210;2023-06-10T08:36:39;8.45;;;7.60;;
5696;SDS011;2873;50.966;7.210;2023-06-10T08:39:05;9.20;;;8.30;;
5696;SDS011;2873;50.966;7.210;2023-06-10T08:41:32;10.50;;;7.80;;
5696;SDS011;2873;50.966;7.210;2023-06-10T08:46:44;8.52;;;7.68;;
5696;SDS011;2873;50.966;7.210;2023-06-10T08:49:11;8.27;;;7.47;;
5696;SDS011;2873;50.966;7.210;2023-06-10T08:51:43;8.50;;;7.70;;
5696;SDS011;2873;50.966;7.210;2023-06-10T08:54:15;9.18;;;7.97;;
5696;SDS011;2873;50.966;7.210;2023-06-10T08:56:45;8.93;;;8.02;;
5696;SDS011;2873;50.966;7.210;2023-06-10T08:59:16;9.23;;;8.20;;
5696;SDS011;2873;50.966;7.210;2023-06-10T09:01:43;9.50;;;8.00;;
5696;SDS011;2873;50.966;7.210;2023-06-10T09:04:10;8.43;;;7.53;;
5696;SDS011;2873;50.966;7.210;2023-06-10T09:06:36;9.87;;;8.20;;
5696;SDS011;2873;50.966;7.210;2023-06-10T09:09:03;10.65;;;8.25;;
5696;SDS011;2873;50.966;7.210;2023-06-10T09:11:31;8.60;;;7.80;;
5696;SDS011;2873;50.966;7.210;2023-06-10T09:13:56;9.75;;;7.90;;
5696;SDS011;2873;50.966;7.210;2023-06-10T09:16:22;10.65;;;8.30;;
5696;SDS011;2873;50.966;7.210;2023-06-10T09:18:50;9.35;;;8.10;;
5696;SDS011;2873;50.966;7.210;2023-06-10T09:21:20;9.10;;;8.20;;
5696;SDS011;2873;50.966;7.210;2023-06-10T09:23:47;9.88;;;7.68;;
5696;SDS011;2873;50.966;7.210;2023-06-10T09:26:13;8.60;;;7.90;;
5696;SDS011;2873;50.966;7.210;2023-06-10T09:28:38;12.23;;;8.30;;
5696;SDS011;2873;50.966;7.210;2023-06-10T09:31:05;8.53;;;7.73;;
5696;SDS011;2873;50.966;7.210;2023-06-10T09:33:37;8.73;;;7.30;;
5696;SDS011;2873;50.966;7.210;2023-06-10T09:36:06;8.55;;;7.65;;
5696;SDS011;2873;50.966;7.210;2023-06-10T09:38:32;10.30;;;7.60;;
5696;SDS011;2873;50.966;7.210;2023-06-10T09:40:59;10.40;;;7.60;;
5696;SDS011;2873;50.966;7.210;2023-06-10T09:43:41;11.02;;;7.55;;
5696;SDS011;2873;50.966;7.210;2023-06-10T09:46:15;8.90;;;8.00;;
5696;SDS011;2873;50.966;7.210;2023-06-10T09:48:42;10.13;;;8.05;;
5696;SDS011;2873;50.966;7.210;2023-06-10T09:51:09;8.40;;;7.43;;
5696;SDS011;2873;50.966;7.210;2023-06-10T09:53:35;9.07;;;7.95;;
5696;SDS011;2873;50.966;7.210;2023-06-10T09:56:02;9.00;;;7.70;;
5696;SDS011;2873;50.966;7.210;2023-06-10T09:58:34;13.32;;;7.60;;
5696;SDS011;2873;50.966;7.210;2023-06-10T10:01:05;8.20;;;7.38;;
5696;SDS011;2873;50.966;7.210;2023-06-10T10:03:44;8.27;;;7.40;;
5696;SDS011;2873;50.966;7.210;2023-06-10T10:06:11;8.90;;;8.00;;
5696;SDS011;2873;50.966;7.210;2023-06-10T10:08:37;8.15;;;7.00;;
5696;SDS011;2873;50.966;7.210;2023-06-10T10:11:03;11.53;;;6.93;;
5696;SDS011;2873;50.966;7.210;2023-06-10T10:13:29;8.07;;;7.07;;
5696;SDS011;2873;50.966;7.210;2023-06-10T10:15:59;9.90;;;7.70;;
5696;SDS011;2873;50.966;7.210;2023-06-10T10:18:29;8.20;;;7.40;;
5696;SDS011;2873;50.966;7.210;2023-06-10T10:20:57;9.88;;;7.25;;
5696;SDS011;2873;50.966;7.210;2023-06-10T10:23:34;8.38;;;7.50;;
5696;SDS011;2873;50.966;7.210;2023-06-10T10:26:06;8.60;;;7.05;;
5696;SDS011;2873;50.966;7.210;2023-06-10T10:28:41;9.20;;;7.10;;
5696;SDS011;2873;50.966;7.210;2023-06-10T10:31:13;8.25;;;7.30;;
5696;SDS011;2873;50.966;7.210;2023-06-10T10:33:45;9.27;;;6.80;;
5696;SDS011;2873;50.966;7.210;2023-06-10T10:36:19;7.47;;;6.78;;
5696;SDS011;2873;50.966;7.210;2023-06-10T10:38:45;7.30;;;6.60;;
5696;SDS011;2873;50.966;7.210;2023-06-10T10:41:14;7.90;;;6.70;;
5696;SDS011;2873;50.966;7.210;2023-06-10T10:43:41;8.40;;;7.40;;
5696;SDS011;2873;50.966;7.210;2023-06-10T10:46:14;8.20;;;6.90;;
5696;SDS011;2873;50.966;7.210;2023-06-10T10:48:42;7.30;;;6.60;;
5696;SDS011;2873;50.966;7.210;2023-06-10T10:51:09;7.30;;;6.60;;
5696;SDS011;2873;50.966;7.210;2023-06-10T10:53:38;9.75;;;6.70;;
5696;SDS011;2873;50.966;7.210;2023-06-10T10:56:05;7.80;;;6.70;;
5696;SDS011;2873;50.966;7.210;2023-06-10T10:58:32;7.28;;;6.57;;
5696;SDS011;2873;50.966;7.210;2023-06-10T11:00:58;7.30;;;6.60;;
5696;SDS011;2873;50.966;7.210;2023-06-10T11:03:27;7.00;;;6.28;;
5696;SDS011;2873;50.966;7.210;2023-06-10T11:05:57;7.00;;;6.40;;
5696;SDS011;2873;50.966;7.210;2023-06-10T11:10:58;8.60;;;6.72;;
5696;SDS011;2873;50.966;7.210;2023-06-10T11:13:25;7.63;;;6.82;;
5696;SDS011;2873;50.966;7.210;2023-06-10T11:15:52;7.45;;;6.53;;
5696;SDS011;2873;50.966;7.210;2023-06-10T11:18:40;7.70;;;7.00;;
5696;SDS011;2873;50.966;7.210;2023-06-10T11:21:06;7.90;;;6.10;;
5696;SDS011;2873;50.966;7.210;2023-06-10T11:31:26;7.43;;;6.72;;
5696;SDS011;2873;50.966;7.210;2023-06-10T11:33:54;8.30;;;6.90;;
5696;SDS011;2873;50.966;7.210;2023-06-10T11:36:22;7.40;;;6.57;;
5696;SDS011;2873;50.966;7.210;2023-06-10T11:38:48;7.30;;;6.70;;
5696;SDS011;2873;50.966;7.210;2023-06-10T11:41:18;8.23;;;6.25;;
5696;SDS011;2873;50.966;7.210;2023-06-10T11:43:47;10.40;;;6.70;;
5696;SDS011;2873;50.966;7.210;2023-06-10T11:46:13;6.90;;;6.30;;
5696;SDS011;2873;50.966;7.210;2023-06-10T11:48:39;6.85;;;6.30;;
5696;SDS011;2873;50.966;7.210;2023-06-10T11:51:16;7.10;;;6.40;;
5696;SDS011;2873;50.966;7.210;2023-06-10T11:53:45;8.18;;;6.38;;
5696;SDS011;2873;50.966;7.210;2023-06-10T11:56:12;8.02;;;6.32;;
5696;SDS011;2873;50.966;7.210;2023-06-10T11:58:37;6.80;;;6.10;;
5696;SDS011;2873;50.966;7.210;2023-06-10T12:01:08;6.60;;;6.00;;
5696;SDS011;2873;50.966;7.210;2023-06-10T12:03:37;6.45;;;5.95;;
5696;SDS011;2873;50.966;7.210;2023-06-10T12:06:04;6.63;;;6.00;;
5696;SDS011;2873;50.966;7.210;2023-06-10T12:08:31;6.70;;;6.10;;
5696;SDS011;2873;50.966;7.210;2023-06-10T12:10:58;6.60;;;6.10;;
5696;SDS011;2873;50.966;7.210;2023-06-10T12:13:27;6.40;;;5.90;;
5696;SDS011;2873;50.966;7.210;2023-06-10T12:15:53;8.02;;;5.70;;
5696;SDS011;2873;50.966;7.210;2023-06-10T12:18:20;7.20;;;6.50;;
5696;SDS011;2873;50.966;7.210;2023-06-10T12:20:46;6.93;;;5.90;;
5696;SDS011;2873;50.966;7.210;2023-06-10T12:23:13;6.40;;;5.90;;
5696;SDS011;2873;50.966;7.210;2023-06-10T12:25:49;6.30;;;5.70;;
5696;SDS011;2873;50.966;7.210;2023-06-10T12:28:25;6.90;;;5.93;;
5696;SDS011;2873;50.966;7.210;2023-06-10T12:30:51;6.45;;;6.00;;
5696;SDS011;2873;50.966;7.210;2023-06-10T12:33:31;6.20;;;5.60;;
5696;SDS011;2873;50.966;7.210;2023-06-10T12:35:57;7.70;;;5.60;;
5696;SDS011;2873;50.966;7.210;2023-06-10T12:38:26;6.23;;;5.70;;
5696;SDS011;2873;50.966;7.210;2023-06-10T12:41:00;7.07;;;5.70;;
5696;SDS011;2873;50.966;7.210;2023-06-10T12:43:30;6.50;;;5.80;;
5696;SDS011;2873;50.966;7.210;2023-06-10T12:46:07;7.00;;;5.70;;
5696;SDS011;2873;50.966;7.210;2023-06-10T12:48:34;6.63;;;5.80;;
5696;SDS011;2873;50.966;7.210;2023-06-10T12:51:00;6.43;;;5.80;;
5696;SDS011;2873;50.966;7.210;2023-06-10T12:53:26;6.32;;;5.82;;
5696;SDS011;2873;50.966;7.210;2023-06-10T12:55:52;5.87;;;5.37;;
5696;SDS011;2873;50.966;7.210;2023-06-10T12:58:19;6.82;;;5.40;;
5696;SDS011;2873;50.966;7.210;2023-06-10T13:00:45;6.57;;;5.97;;
5696;SDS011;2873;50.966;7.210;2023-06-10T13:03:11;5.60;;;5.20;;
5696;SDS011;2873;50.966;7.210;2023-06-10T13:05:36;5.30;;;5.00;;
5696;SDS011;2873;50.966;7.210;2023-06-10T13:08:03;5.72;;;5.22;;
5696;SDS011;2873;50.966;7.210;2023-06-10T13:10:30;5.30;;;4.90;;
5696;SDS011;2873;50.966;7.210;2023-06-10T13:12:55;5.60;;;5.20;;
5696;SDS011;2873;50.966;7.210;2023-06-10T13:15:21;5.63;;;5.13;;
5696;SDS011;2873;50.966;7.210;2023-06-10T13:17:48;6.20;;;5.60;;
5696;SDS011;2873;50.966;7.210;2023-06-10T13:20:15;7.63;;;5.38;;
5696;SDS011;2873;50.966;7.210;2023-06-10T13:22:41;6.10;;;5.60;;
5696;SDS011;2873;50.966;7.210;2023-06-10T13:25:07;7.25;;;5.43;;
5696;SDS011;2873;50.966;7.210;2023-06-10T13:27:34;9.68;;;5.50;;
5696;SDS011;2873;50.966;7.210;2023-06-10T13:30:00;5.57;;;5.10;;
5696;SDS011;2873;50.966;7.210;2023-06-10T13:32:26;6.45;;;5.88;;
5696;SDS011;2873;50.966;7.210;2023-06-10T13:34:52;8.75;;;5.45;;
5696;SDS011;2873;50.966;7.210;2023-06-10T13:37:21;5.45;;;4.95;;
5696;SDS011;2873;50.966;7.210;2023-06-10T13:39:48;5.43;;;4.95;;
5696;SDS011;2873;50.966;7.210;2023-06-10T13:42:19;6.28;;;5.68;;
5696;SDS011;2873;50.966;7.210;2023-06-10T13:44:45;5.60;;;5.20;;
5696;SDS011;2873;50.966;7.210;2023-06-10T13:47:12;6.47;;;5.10;;
5696;SDS011;2873;50.966;7.210;2023-06-10T13:49:38;6.85;;;4.80;;
5696;SDS011;2873;50.966;7.210;2023-06-10T13:52:05;5.97;;;5.47;;
5696;SDS011;2873;50.966;7.210;2023-06-10T13:54:31;5.80;;;5.30;;
5696;SDS011;2873;50.966;7.210;2023-06-10T13:56:56;5.97;;;4.87;;
5696;SDS011;2873;50.966;7.210;2023-06-10T13:59:22;5.83;;;5.33;;
5696;SDS011;2873;50.966;7.210;2023-06-10T14:01:48;6.00;;;5.30;;
5696;SDS011;2873;50.966;7.210;2023-06-10T14:04:13;7.30;;;4.97;;
5696;SDS011;2873;50.966;7.210;2023-06-10T14:06:39;5.73;;;5.23;;
5696;SDS011;2873;50.966;7.210;2023-06-10T14:09:05;5.53;;;5.10;;
5696;SDS011;2873;50.966;7.210;2023-06-10T14:11:30;5.97;;;5.40;;
5696;SDS011;2873;50.966;7.210;2023-06-10T14:13:56;6.00;;;5.50;;
5696;SDS011;2873;50.966;7.210;2023-06-10T14:16:22;6.10;;;5.60;;
5696;SDS011;2873;50.966;7.210;2023-06-10T14:18:48;5.43;;;4.93;;
5696;SDS011;2873;50.966;7.210;2023-06-10T14:21:15;5.40;;;4.78;;
5696;SDS011;2873;50.966;7.210;2023-06-10T14:23:41;7.53;;;6.82;;
5696;SDS011;2873;50.966;7.210;2023-06-10T14:26:08;11.70;;;9.30;;
5696;SDS011;2873;50.966;7.210;2023-06-10T14:28:34;10.77;;;6.27;;
5696;SDS011;2873;50.966;7.210;2023-06-10T14:31:00;4.90;;;4.60;;
5696;SDS011;2873;50.966;7.210;2023-06-10T14:33:26;9.30;;;4.85;;
5696;SDS011;2873;50.966;7.210;2023-06-10T14:35:52;5.20;;;4.70;;
5696;SDS011;2873;50.966;7.210;2023-06-10T14:38:17;6.45;;;4.90;;
5696;SDS011;2873;50.966;7.210;2023-06-10T14:40:43;7.85;;;4.90;;
5696;SDS011;2873;50.966;7.210;2023-06-10T14:43:09;5.30;;;4.90;;
5696;SDS011;2873;50.966;7.210;2023-06-10T14:45:44;5.40;;;5.00;;
5696;SDS011;2873;50.966;7.210;2023-06-10T14:48:12;5.20;;;4.70;;
5696;SDS011;2873;50.966;7.210;2023-06-10T14:50:38;6.30;;;5.80;;
5696;SDS011;2873;50.966;7.210;2023-06-10T14:53:05;8.02;;;5.55;;
5696;SDS011;2873;50.966;7.210;2023-06-10T14:55:31;7.70;;;4.80;;
5696;SDS011;2873;50.966;7.210;2023-06-10T14:57:57;6.80;;;5.27;;
5696;SDS011;2873;50.966;7.210;2023-06-10T15:00:23;5.53;;;4.82;;
5696;SDS011;2873;50.966;7.210;2023-06-10T15:02:49;4.97;;;4.63;;
5696;SDS011;2873;50.966;7.210;2023-06-10T15:05:15;6.53;;;4.50;;
5696;SDS011;2873;50.966;7.210;2023-06-10T15:07:42;5.65;;;4.63;;
5696;SDS011;2873;50.966;7.210;2023-06-10T15:10:08;4.72;;;4.22;;
5696;SDS011;2873;50.966;7.210;2023-06-10T15:12:34;5.10;;;4.70;;
5696;SDS011;2873;50.966;7.210;2023-06-10T15:15:00;7.60;;;5.00;;
5696;SDS011;2873;50.966;7.210;2023-06-10T15:17:27;4.82;;;4.53;;
5696;SDS011;2873;50.966;7.210;2023-06-10T15:19:52;4.80;;;4.50;;
5696;SDS011;2873;50.966;7.210;2023-06-10T15:22:18;7.53;;;4.50;;